Latest Weather Observations for Mudgee

IDN60801

Issued at 4:02 pm EDT Sunday 26 March 2017 (issued every 30 minutes, with the page automatically refreshed every 10 minutes)

About weather observations | Map of weather stations | Latest weather observations for NSW | Other Formats
Station Details ID: 062101 Name: MUDGEE AIRPORT AWS Lat: -32.56 Lon: 149.61 Height: 471.0 m
Data from the previous 72 hours. | See also: Recent months at Mudgee
Date/Time
EDT
Temp
°C
App
Temp
°C
Dew
Point
°C
Rel
Hum
%
Delta-T
°C
Wind Press
QNH
hPa
Press
MSL
hPa
Rain since
9am
mm
Dir  Spd
km/h
Gust
km/h
Spd
kts
Gust
kts
26/04:00pm 28.3 27.9 18.1 54 6.6 NNE 17 24 9 13 1014.2 1012.4 0.0
26/03:30pm 28.8 30.2 17.7 51 7.2 SSW 7 11 4 6 1014.3 1012.5 0.0
26/03:00pm 28.2 29.5 17.1 51 7.1 WSW 6 9 3 5 1014.6 1012.8 0.0
26/02:30pm 27.5 28.5 16.8 52 6.8 E 7 11 4 6 1015.0 1013.1 0.0
26/02:00pm 28.7 30.5 18.8 55 6.5 NE 7 17 4 9 1015.4 1013.6 0.0
26/01:30pm 28.4 29.6 18.2 54 6.6 N 9 13 5 7 1015.7 1013.9 0.0
26/01:00pm 27.9 29.8 17.7 53 6.6 E 4 9 2 5 1016.1 1014.3 0.0
26/12:30pm 26.8 29.0 18.4 60 5.4 W 4 9 2 5 1016.6 1014.8 0.0
26/12:00pm 26.4 29.5 19.5 66 4.5 WNW 2 6 1 3 1016.9 1015.1 0.0
26/11:30am 25.0 27.5 19.8 73 3.4 WNW 6 11 3 6 1017.0 1015.3 0.0
26/11:00am 24.2 27.7 20.3 79 2.6 WNW 2 7 1 4 1017.4 1015.6 0.0
26/10:30am 22.8 25.7 19.8 83 2.0 SW 4 7 2 4 1017.6 1015.8 0.0
26/10:00am 21.5 24.5 21.2 98 0.2 S 7 13 4 7 1017.5 1015.7 0.0
26/09:57am 21.2 24.0 20.9 98 0.2 SSE 7 13 4 7 1017.6 1015.8 0.0
26/09:33am 19.8 21.6 19.6 99 0.1 S 9 13 5 7 1017.6 1015.8 0.0
26/09:30am 19.5 21.2 19.3 99 0.1 S 9 13 5 7 1017.5 1015.7 0.0
26/09:00am 18.6 19.9 18.4 99 0.1 SSE 9 11 5 6 1017.4 1015.6 0.0
26/08:30am 17.9 20.2 17.7 99 0.1 SSE 2 7 1 4 1017.0 1015.3 0.0
26/08:00am 17.6 20.2 17.4 99 0.1 CALM 0 0 0 0 1016.8 1015.0 0.0
26/07:30am 17.1 19.5 16.9 99 0.1 CALM 0 0 0 0 1016.4 1014.6 0.0
26/07:00am 17.3 19.7 17.1 99 0.1 CALM 0 0 0 0 1016.3 1014.5 0.0
26/06:30am 17.6 20.2 17.4 99 0.1 CALM 0 0 0 0 1015.8 1014.0 0.0
26/06:00am 17.6 19.8 17.4 99 0.1 NNE 2 9 1 5 1015.4 1013.6 0.0
26/05:34am 17.9 20.6 17.7 99 0.1 CALM 0 0 0 0 1015.4 1013.6 0.0
26/05:30am 17.9 20.6 17.7 99 0.1 CALM 0 0 0 0 1015.3 1013.5 0.0
26/05:00am 18.3 21.2 18.1 99 0.1 CALM 0 4 0 2 1015.1 1013.2 0.0
26/04:59am 18.3 21.2 18.1 99 0.1 CALM 0 6 0 3 1015.1 1013.2 0.0
26/04:30am 18.8 20.7 18.6 99 0.1 SSE 6 7 3 4 1015.2 1013.3 0.0
26/04:00am 18.8 21.9 18.6 99 0.1 CALM 0 0 0 0 1015.2 1013.3 0.0
26/03:30am 18.7 21.7 18.5 99 0.1 CALM 0 0 0 0 1015.4 1013.6 0.0
26/03:00am 19.3 22.6 19.0 98 0.2 CALM 0 4 0 2 1015.4 1013.6 0.0
26/02:30am 19.3 21.4 19.0 98 0.2 E 6 9 3 5 1015.6 1013.8 0.0
26/02:00am 19.3 20.8 19.0 98 0.2 N 9 13 5 7 1016.1 1014.3 0.0
26/01:30am 20.2 23.9 19.9 98 0.2 CALM 0 4 0 2 1016.0 1014.2 0.0
26/01:00am 20.3 22.9 20.0 98 0.2 ENE 6 7 3 4 1015.9 1014.1 0.0
26/12:30am 20.7 23.3 20.4 98 0.2 SSE 7 9 4 5 1016.2 1014.4 0.0
26/12:00am 21.0 23.5 20.2 95 0.5 SE 7 11 4 6 1016.0 1014.2 0.0
 
Date/Time
EDT
Temp
°C
App
Temp
°C
Dew
Point
°C
Rel
Hum
%
Delta-T
°C
Wind Press
QNH
hPa
Press
MSL
hPa
Rain since
9am
mm
Dir  Spd
km/h
Gust
km/h
Spd
kts
Gust
kts
25/11:30pm 21.4 23.7 19.9 91 1.0 E 7 9 4 5 1015.9 1014.1 0.0
25/11:00pm 21.1 21.6 20.8 98 0.2 NNW 19 28 10 15 1016.3 1014.5 0.0
25/10:30pm 21.1 24.1 20.8 98 0.2 SSE 6 7 3 4 1015.7 1013.9 0.0
25/10:00pm 21.0 23.5 20.2 95 0.5 NE 7 9 4 5 1015.7 1013.9 0.0
25/09:30pm 21.9 25.9 20.5 92 0.9 CALM 0 0 0 0 1015.5 1013.7 0.0
25/09:00pm 22.4 25.0 20.1 87 1.5 SSE 6 7 3 4 1015.3 1013.5 0.0
25/08:30pm 22.5 25.8 19.9 85 1.7 NW 2 9 1 5 1014.9 1013.0 0.0
25/08:00pm 23.1 24.8 20.2 84 1.9 NE 11 15 6 8 1014.4 1012.6 0.0
25/07:30pm 23.4 26.3 20.7 85 1.8 NNE 6 11 3 6 1014.3 1012.5 0.0
25/07:00pm 24.3 25.4 19.6 75 3.1 ENE 13 20 7 11 1013.5 1011.7 0.0
25/06:30pm 25.6 27.8 19.7 70 3.9 ENE 7 17 4 9 1013.6 1011.8 0.0
25/06:00pm 26.7 28.9 20.5 69 4.1 NNW 9 11 5 6 1013.7 1011.9 0.0
25/05:30pm 26.8 28.9 19.4 64 4.9 WNW 7 9 4 5 1013.5 1011.7 0.0
25/05:00pm 26.9 28.1 19.0 62 5.2 WNW 11 15 6 8 1013.6 1011.8 0.0
25/04:30pm 27.2 27.8 19.5 62 5.1 WNW 15 20 8 11 1013.8 1012.0 0.0
25/04:00pm 27.6 29.3 19.4 61 5.4 NW 9 17 5 9 1014.1 1012.3 0.0
25/03:30pm 26.3 26.3 18.9 63 4.8 N 17 20 9 11 1014.4 1012.6 0.0
25/03:00pm 25.1 26.0 18.3 66 4.4 NNE 11 20 6 11 1014.9 1013.0 0.0
25/02:30pm 25.1 25.2 18.3 66 4.4 NNW 15 20 8 11 1015.3 1013.5 0.0
25/02:00pm 24.8 25.7 18.3 67 4.2 NNW 11 19 6 10 1015.7 1013.9 0.0
25/01:30pm 24.7 25.2 17.4 64 4.6 NW 11 22 6 12 1016.1 1014.3 0.0
25/01:00pm 23.6 24.1 16.6 65 4.4 NE 9 19 5 10 1016.6 1014.8 0.0
25/12:30pm 22.6 22.4 15.7 65 4.2 NNE 11 15 6 8 1017.3 1015.5 0.0
25/12:00pm 21.7 21.8 15.5 68 3.8 NE 9 17 5 9 1017.9 1016.1 0.0
25/11:30am 21.2 21.4 14.8 67 3.8 E 7 15 4 8 1018.4 1016.6 0.0
25/11:00am 20.3 19.9 15.1 72 3.1 NE 11 15 6 8 1018.6 1016.8 0.0
25/10:37am 19.8 19.6 14.8 73 3.0 ENE 9 17 5 9 1018.8 1017.0 0.0
25/10:30am 19.7 20.0 14.9 74 2.9 ENE 7 11 4 6 1018.9 1017.2 0.0
25/10:00am 18.1 17.4 14.4 79 2.2 SE 11 17 6 9 1019.0 1017.3 0.0
25/09:57am 18.2 18.0 14.7 80 2.1 SE 9 17 5 9 1019.0 1017.3 0.0
25/09:35am 17.9 17.7 14.6 81 1.9 SE 9 13 5 7 1019.1 1017.4 0.0
25/09:30am 17.6 17.3 14.3 81 1.9 SE 9 13 5 7 1019.0 1017.3 0.0
25/09:23am 17.8 17.7 14.9 83 1.7 SSE 9 13 5 7 1019.0 1017.3 0.0
25/09:00am 17.5 17.0 13.8 79 2.1 SE 9 13 5 7 1018.9 1017.2 0.0
25/08:47am 17.6 17.8 14.7 83 1.7 ESE 7 11 4 6 1018.7 1016.9 0.0
25/08:30am 17.1 16.8 14.4 84 1.6 SE 9 13 5 7 1018.7 1016.9 0.0
25/08:04am 16.8 17.5 14.6 87 1.3 SSW 4 7 2 4 1018.6 1016.8 0.0
25/08:00am 16.7 17.9 14.9 89 1.1 SSW 2 7 1 4 1018.6 1016.8 0.0
25/07:30am 16.1 16.3 14.6 91 0.9 NE 7 11 4 6 1018.0 1016.2 0.0
25/07:00am 16.6 16.6 14.2 86 1.4 SSE 7 11 4 6 1018.0 1016.2 0.0
25/06:30am 16.7 16.7 14.3 86 1.4 SE 7 11 4 6 1017.8 1016.0 0.0
25/06:00am 16.1 16.3 14.1 88 1.2 E 6 9 3 5 1017.8 1016.0 0.0
25/05:30am 16.7 16.8 14.0 84 1.6 SE 6 9 3 5 1017.7 1015.9 0.0
25/05:00am 16.9 17.0 13.8 82 1.8 ESE 6 9 3 5 1017.7 1015.9 0.0
25/04:30am 17.1 16.7 14.2 83 1.7 ESE 9 17 5 9 1017.7 1015.9 0.0
25/04:23am 17.1 17.2 14.4 84 1.6 ESE 7 15 4 8 1017.9 1016.1 0.0
25/04:00am 16.9 17.9 14.4 85 1.5 E 2 7 1 4 1017.9 1016.1 0.0
25/03:30am 17.4 17.6 14.3 82 1.8 ENE 6 7 3 4 1018.1 1016.3 0.0
25/03:00am 17.6 17.6 14.3 81 1.9 ESE 7 11 4 6 1018.3 1016.5 0.0
25/02:56am 17.6 17.6 14.3 81 1.9 ESE 7 11 4 6 1018.3 1016.5 0.0
25/02:48am 17.5 17.1 14.0 80 2.0 ESE 9 15 5 8 1018.2 1016.4 0.0
25/02:30am 17.7 17.0 14.2 80 2.0 ESE 11 20 6 11 1018.3 1016.5 0.0
25/02:00am 17.8 17.5 14.5 81 1.9 SE 9 13 5 7 1018.6 1016.8 0.0
25/01:30am 18.0 17.6 14.1 78 2.3 ESE 9 13 5 7 1018.9 1017.2 0.0
25/01:00am 18.3 18.1 14.6 79 2.2 E 9 15 5 8 1019.1 1017.4 0.0
25/12:30am 18.4 17.9 14.9 80 2.1 ESE 11 17 6 9 1019.1 1017.4 0.0
25/12:09am 18.7 18.3 15.2 80 2.1 ESE 11 19 6 10 1019.4 1017.6 0.0
25/12:00am 18.7 17.9 15.0 79 2.2 ESE 13 22 7 12 1019.4 1017.6 0.0
 
Date/Time
EDT
Temp
°C
App
Temp
°C
Dew
Point
°C
Rel
Hum
%
Delta-T
°C
Wind Press
QNH
hPa
Press
MSL
hPa
Rain since
9am
mm
Dir  Spd
km/h
Gust
km/h
Spd
kts
Gust
kts
24/11:30pm 18.7 18.3 15.2 80 2.1 ESE 11 19 6 10 1019.6 1017.8 0.0
24/11:00pm 18.7 18.2 15.0 79 2.2 E 11 19 6 10 1019.9 1018.1 0.0
24/10:33pm 18.7 18.7 15.2 80 2.1 ESE 9 13 5 7 1020.1 1018.3 0.0
24/10:30pm 18.7 18.7 15.2 80 2.1 ESE 9 15 5 8 1020.0 1018.2 0.0
24/10:01pm 18.6 18.8 15.7 83 1.8 ESE 9 17 5 9 1019.8 1018.0 0.0
24/10:00pm 18.6 18.8 15.7 83 1.7 ESE 9 17 5 9 1019.7 1017.9 0.0
24/09:30pm 18.8 18.7 16.0 84 1.7 E 11 24 6 13 1019.6 1017.8 0.0
24/09:00pm 18.1 18.7 15.9 87 1.3 NE 7 11 4 6 1019.4 1017.6 0.0
24/08:30pm 18.8 19.0 15.7 82 1.9 ENE 9 11 5 6 1019.0 1017.3 0.0
24/08:00pm 19.5 19.3 15.6 78 2.4 ENE 11 19 6 10 1018.6 1016.8 0.0
24/07:30pm 19.9 19.2 15.3 75 2.8 ENE 13 19 7 10 1018.5 1016.7 0.0
24/07:00pm 20.4 20.2 15.6 74 2.9 ENE 11 15 6 8 1018.3 1016.5 0.0
24/06:30pm 21.0 19.5 15.3 70 3.5 E 17 24 9 13 1018.2 1016.4 0.0
24/06:00pm 21.7 21.2 15.8 69 3.6 ESE 13 19 7 10 1018.0 1016.2 0.0
24/05:30pm 21.4 19.9 15.3 68 3.7 SE 17 26 9 14 1018.2 1016.4 0.0
24/05:00pm 21.3 20.3 15.6 70 3.5 SE 15 22 8 12 1018.1 1016.3 0.0
24/04:30pm 21.6 21.4 15.7 69 3.6 ESE 11 15 6 8 1018.2 1016.4 0.0
24/04:00pm 21.0 20.6 16.2 74 2.9 ESE 13 26 7 14 1018.3 1016.5 0.0
24/03:37pm 20.9 20.5 16.3 75 2.8 ESE 13 17 7 9 1018.4 1016.6 0.0
24/03:30pm 20.7 20.6 16.1 75 2.8 ESE 11 20 6 11 1018.6 1016.8 0.0
24/03:00pm 20.3 19.9 16.1 77 2.6 ESE 13 20 7 11 1018.8 1017.0 0.0
24/02:52pm 20.3 20.3 16.3 78 2.5 SE 11 20 6 11 1018.8 1017.0 0.0
24/02:30pm 20.0 19.5 16.0 78 2.4 SE 13 20 7 11 1019.2 1017.5 0.0
24/02:15pm 20.1 19.5 16.7 81 2.1 ESE 15 24 8 13 1019.4 1017.6 0.0
24/02:00pm 19.8 19.3 17.0 84 1.7 SE 15 24 8 13 1019.9 1018.1 0.0
24/01:30pm 19.7 19.6 16.9 84 1.7 ESE 13 20 7 11 1020.0 1018.2 0.0
24/01:00pm 19.5 20.3 17.3 87 1.4 ESE 9 15 5 8 1020.2 1018.4 0.0
24/12:30pm 18.4 18.1 17.4 94 0.6 ESE 15 22 8 12 1020.6 1018.8 0.0
24/12:00pm 17.9 17.7 16.6 92 0.8 SE 13 20 7 11 1020.9 1019.2 0.0
24/11:30am 17.9 17.9 17.1 95 0.5 SE 13 20 7 11 1020.8 1019.1 0.0
24/11:06am 17.1 17.3 16.8 98 0.2 SE 11 17 6 9 1020.9 1019.2 0.0
24/11:00am 16.8 16.9 16.5 98 0.2 SE 11 17 6 9 1021.0 1019.3 0.0
24/10:51am 16.6 16.6 16.3 98 0.2 SE 11 17 6 9 1021.0 1019.3 0.0
24/10:30am 17.1 17.1 16.3 95 0.5 SE 11 19 6 10 1021.1 1019.4 0.0
24/10:17am 17.0 16.9 16.0 94 0.6 SE 11 19 6 10 1021.1 1019.4 0.0
24/10:15am 16.9 16.4 15.9 94 0.6 SE 13 20 7 11 1021.1 1019.4 0.0
24/10:00am 17.2 16.2 15.5 90 1.0 SSE 15 28 8 15 1021.1 1019.4 0.0
24/09:30am 17.7 15.8 15.7 88 1.2 SE 20 32 11 17 1020.5 1018.7 0.0
24/09:19am 17.4 15.6 15.4 88 1.2 SE 19 32 10 17 1020.6 1018.8 0.0
24/09:00am 17.0 15.2 15.5 91 0.9 ESE 19 30 10 16 1020.5 1018.7 0.0
24/08:30am 16.2 16.1 15.9 98 0.2 SE 11 22 6 12 1020.3 1018.5 0.0
24/08:00am 15.7 15.4 15.4 98 0.2 SSE 11 17 6 9 1020.0 1018.2 0.0
24/07:37am 15.4 15.0 15.2 99 0.1 SSE 11 17 6 9 1019.6 1017.8 0.0
24/07:30am 15.4 15.0 15.2 99 0.1 SSE 11 20 6 11 1019.7 1017.9 0.0
24/07:24am 15.3 14.8 15.0 98 0.2 SE 11 20 6 11 1019.7 1017.9 0.0
24/07:23am 15.3 14.5 15.0 98 0.2 SE 13 20 7 11 1019.6 1017.8 0.0
24/07:08am 15.5 14.4 15.2 98 0.2 S 15 20 8 11 1019.9 1018.1 0.0
24/07:00am 15.7 14.2 15.4 98 0.2 S 17 20 9 11 1019.8 1018.0 0.0
24/06:31am 16.2 14.4 15.9 98 0.2 SSE 20 33 11 18 1018.7 1016.9 0.0
24/06:30am 16.1 14.4 15.8 98 0.2 SSE 19 33 10 18 1018.7 1016.9 0.0
24/06:13am 16.2 14.9 15.9 98 0.2 SE 17 32 9 17 1018.6 1016.8 0.0
24/06:00am 16.5 16.1 16.2 98 0.2 SSE 13 20 7 11 1018.7 1016.9 0.0
24/05:30am 17.3 18.4 17.0 98 0.2 S 7 13 4 7 1018.8 1017.0 0.0
24/05:00am 17.4 17.7 17.1 98 0.2 SSE 11 20 6 11 1018.1 1016.3 0.0
24/04:30am 17.5 17.5 17.2 98 0.2 SSE 13 28 7 15 1017.9 1016.1 0.0
24/04:13am 17.3 18.6 17.1 99 0.1 SE 6 9 3 5 1017.6 1015.8 0.0
24/04:00am 17.4 18.2 17.2 99 0.1 SE 9 15 5 8 1018.0 1016.2 0.0
24/03:54am 17.5 18.7 17.3 99 0.1 SW 7 15 4 8 1018.3 1016.5 0.0
24/03:50am 17.6 19.0 17.4 99 0.1 W 6 9 3 5 1018.4 1016.6 0.0
24/03:30am 17.5 17.2 17.3 99 0.1 SSE 15 22 8 12 1017.8 1016.0 0.0
24/03:00am 17.6 16.9 17.4 99 0.1 S 17 22 9 12 1018.1 1016.3 0.0
24/02:34am 17.3 17.3 17.1 99 0.1 SE 13 20 7 11 1017.8 1016.0 0.0
24/02:30am 17.3 17.3 17.1 99 0.1 SE 13 20 7 11 1017.9 1016.1 0.0
24/02:26am 17.3 17.3 17.1 99 0.1 ESE 13 20 7 11 1018.2 1016.4 0.0
24/02:00am 17.5 15.8 17.2 98 0.2 SSW 22 28 12 15 1018.9 1017.2 0.0
24/01:52am 18.0 16.8 17.4 96 0.4 SSW 20 28 11 15 1018.8 1017.0 0.0
24/01:30am 19.3 18.8 16.9 86 1.5 SE 15 22 8 12 1017.8 1016.0 0.0
24/01:00am 18.8 17.9 16.9 89 1.2 SE 17 28 9 15 1018.3 1016.5 0.0
24/12:30am 19.2 18.7 16.8 86 1.5 SE 15 24 8 13 1018.0 1016.2 0.0
24/12:00am 18.7 19.1 17.2 91 0.9 SSE 11 19 6 10 1018.4 1016.6 0.0
 
Date/Time
EDT
Temp
°C
App
Temp
°C
Dew
Point
°C
Rel
Hum
%
Delta-T
°C
Wind Press
QNH
hPa
Press
MSL
hPa
Rain since
9am
mm
Dir  Spd
km/h
Gust
km/h
Spd
kts
Gust
kts
23/11:30pm 19.3 19.2 16.9 86 1.5 SE 13 20 7 11 1018.5 1016.7 0.0
23/11:00pm 19.3 18.9 17.1 87 1.4 SE 15 20 8 11 1018.1 1016.3 0.0
23/10:30pm 19.4 19.7 17.0 86 1.5 SSE 11 15 6 8 1019.0 1017.3 0.0
23/10:00pm 19.8 19.7 17.0 84 1.7 SE 13 20 7 11 1018.7 1016.9 0.0
23/09:30pm 19.9 19.9 17.3 85 1.6 SSE 13 20 7 11 1018.5 1016.7 0.0
23/09:00pm 19.8 19.8 17.2 85 1.6 SE 13 20 7 11 1018.0 1016.2 0.0
23/08:30pm 20.1 20.9 17.3 84 1.7 ESE 9 13 5 7 1017.9 1016.1 0.0
23/08:00pm 20.2 20.6 17.2 83 1.9 SE 11 20 6 11 1017.6 1015.8 0.0
23/07:30pm 20.5 20.9 17.3 82 2.0 SE 11 15 6 8 1017.7 1015.9 0.0
23/07:00pm 20.8 20.5 17.4 81 2.1 SE 15 20 8 11 1017.0 1015.3 0.0
23/06:30pm 21.3 21.3 17.3 78 2.5 SE 13 19 7 10 1017.0 1015.3 0.0
23/06:00pm 21.6 22.2 17.6 78 2.5 SSE 11 17 6 9 1016.9 1015.1 0.0
23/05:30pm 22.0 21.9 17.8 77 2.7 SSE 15 19 8 10 1016.9 1015.1 0.0
23/05:00pm 22.4 22.3 17.8 75 2.9 SSE 15 20 8 11 1017.0 1015.3 0.0
23/04:30pm 22.0 21.9 17.8 77 2.7 SSE 15 20 8 11 1017.2 1015.4 0.0

Other Formats:

Comma delimited format used in spreadsheet applications
http://www.bom.gov.au/fwo/IDN60801/IDN60801.94727.axf

JavaScript Object Notation format (JSON) in row-major order
http://www.bom.gov.au/fwo/IDN60801/IDN60801.94727.json